Altoona Blair County Airport Altoona US
ICAO: KAOO
IATA: AOO
Category: Medium
Scheduled Services: Yes

Elevation: 1503 ft
TransAlt. 18000 ft.

Airport Communications:
ASOS:127.125
CLEVELAND CNTR:121.2
CTAF:123.6
RDO:122.1
RDO:122.2
UNICOM:123

KAOO Zoom In..

If you have problems with the map follow the link
https://www.worldairports.se/pages/airport.php?
ICAO=KAOO

Runways:

(A) RW 03 length 5465 ft width 100 ft
---- / hdg 26

(B) RW 12 length 3668 ft width 75 ft
---- / hdg 118

(C) RW 21 length 5465 ft width 100 ft
ILS 111.10 / hdg 206

(D) RW 30 length 3668 ft width 75 ft
---- / hdg 298

Location; KAOO
Day. 06 / Time. 13.53 Zulu
* Altimeter: 30.01
* Temperature: 03° c. 37.4°f.
* Wind from: 220° Speed 09 kn.
Dewpoint: -04° c.
Visibility: 10 Statute Miles.
Clouds: Clear (automated report).

KAOO 061353Z AUTO 22009KT 10SM CLR 03/M04 A3001 RMK AO2 SLP178 T00331039


Wind From 220°
Speed 09 kn.

 
 
jpsmedia worldairports.se 2019   terms of use